默认 日期 大小 文件数 浏览量 最新下载 xml
com -6磁力链接相关资源由用户搜索指令自动获取,结果来源于网络,本站不存储任何资料,亦不承担任何责任,请于24小时内删除,搜索到14470个磁力,显示前4000条数据,用时122ms。
    ... .avi": 735707136, "Droga Bez Powrotu 6 2014.avi": 734573780, "Droga.bez ...
创建时间: 2019-12-01 05:52:21 大小:4.3 GB 文件数量:9 热度:6 最近下载:2024-11-09 04:07:01
    ... ": 947}}, "à lire.txt": 159, "OxTorrent.com.url": 116, "DriverEasyPortable.exe": 321272 ...
创建时间: 2019-12-01 09:23:41 大小:11.59 MB 文件数量:31 热度:8 最近下载:2025-02-12 00:18:03
    {"à lire.txt": 159, "OxTorrent.com.url": 116, "OxTorrent Officiel.url": ...
创建时间: 2019-12-01 13:36:31 大小:7.9 GB 文件数量:26 热度:6 最近下载:2025-04-19 13:16:02
    {"The Mentalist S06E08 720p HDTV x264 [GlowGaze.Com].mp4": 526190990, "The Mentalist S06E08 720p HDTV x264 [GlowGaze.Com].srt": 51892}
创建时间: 2019-12-02 01:33:07 大小:501.86 MB 文件数量:2 热度:5 最近下载:2023-12-26 07:19:03
    {"1x07 Conflicto Final - Resurreccion By Genio2.avi": 410355712, "1x08 Conflicto Final - Horizonte Cero By Genio2.avi": 409866240, "1x10 Conflicto Final - Vive libre o muere By Genio2.avi": 407076864, "1x09 Conflicto Final - Sueno de escorpiones By Genio2. ...
创建时间: 2019-12-02 08:45:04 大小:1.91 GB 文件数量:5 热度:7 最近下载:2025-02-06 02:22:11
    ... Anal 6 (Lucy Belle) XXX [DVDRip][Anal][www.sexotorrent.com][CD1].avi ... ": 733001728, "Evil Anal 6 (Lucy Belle ... ][Anal][www.sexotorrent.com][CD2].avi": 732981248, "Evil Anal 6 (Lucy Belle ...
创建时间: 2019-12-02 10:40:08 大小:2.05 GB 文件数量:9 热度:9 最近下载:2025-04-23 03:43:02
    {"[XJ0610.com]SDMU-415-480p.mp4": 1201271905, "香蕉视频-安卓客户端.apk": 15216828, "更多高清访问【XJ0610.COM】.html": 121, "【左侧打勾】香蕉APP下载地址-永久免费.html": 123}
创建时间: 2019-12-02 18:14:36 大小:1.13 GB 文件数量:4 热度:90 最近下载:2025-10-07 10:31:02
    {"08 Gagging Order.mp3": 4609175, "04 Paperbag Writer.mp3": 5110527, "09 Fog (Again) (Live).mp3": 2826795, "05 I Am A Wicked Child.mp3": 3892659, "06 I Am Citizen Insane.mp3": 4652239, "10 Where Bluebirds Fly.mp3": 5825844, "03 I Will (Los Angeles Version ...
创建时间: 2019-12-03 10:18:20 大小:93.57 MB 文件数量:16 热度:5 最近下载:2023-12-26 10:31:04
    ... S06-E22.avi": 577060014, "OxTorrent.com.url": 116, "OxTorrent Officiel.url ...
创建时间: 2019-12-03 12:14:48 大小:12.42 GB 文件数量:26 热度:4 最近下载:2023-12-26 10:36:05
    {"Homeland S03E06 720p WEBRip x264 [GlowGaze.Com].mp4": 581234996, "Homeland S03E06 720p WEBRip x264 [GlowGaze.Com].srt": 48086}
创建时间: 2019-12-03 20:23:37 大小:554.35 MB 文件数量:2 热度:4 最近下载:2023-12-26 11:06:02
    {"Resi6dentEv6il6Comp6leteEA-elamigos.part01.rar": 1048576094, "Resi6dentEv6il6Comp6leteEA-elamigos.part02.rar": 1048576094, "Resi6dentEv6il6Comp6leteEA-elamigos.part03.rar": 1048576094, "Resi6dentEv6il6Comp6leteEA-elamigos.part04.rar": 1048576094, " ...
创建时间: 2019-12-05 09:14:09 大小:10.41 GB 文件数量:11 热度:3 最近下载:2023-12-26 15:18:01
    ... ": {"03 ViceVersa - Ella.[www.pctrecords.com].mp3": 7492400, "06 Postfix - Rototom ... Pressing - Que Gustazo.[www.pctrecords.com].mp3": 7012175, "02 Abigail - Losing ... My Religion.[www.pctrecords.com].mp3": 11220190}, "maquinatot6back.[www.pctrecords ...
创建时间: 2019-12-05 12:44:43 大小:126.25 MB 文件数量:16 热度:5 最近下载:2025-03-06 20:35:02
    ... 哩嘀哩www.dilidm.com][国漫]我家公 ... 哩嘀哩www.dilidm.com][国漫]我家公 ... 哩嘀哩www.dilidm.com][国漫]我家公 ... 哩嘀哩www.dilidm.com][国漫]我家公 ... 哩嘀哩www.dilidm.com][国漫]我家公 ... 哩嘀哩www.dilidm.com][国漫]我家公 ... 子是上仙 第6集 蓝光(1080P).qlv ...
创建时间: 2019-12-08 02:49:02 大小:822.27 MB 文件数量:6 热度:6 最近下载:2025-10-13 16:17:02
    ... - Temporada 6 [HDTV][Cap.624 FINAL][Spanish][www.newpct.com].avi": 554356736 ...
创建时间: 2019-12-08 05:53:55 大小:528.68 MB 文件数量:6 热度:4 最近下载:2025-01-19 03:55:13
    {"VA-Hardtechno.Vol.6.Mixed.By.Pet.Duo.2CD.(2008).[BajandoAlbums.CoM].rar": 184292252}
创建时间: 2019-12-08 06:26:12 大小:175.75 MB 文件数量:1 热度:4 最近下载:2023-12-27 20:19:02
    ... 哩嘀哩www.dilidm.com][国漫]先婚后 ... 哩嘀哩www.dilidm.com][国漫]先婚后 ... 哩嘀哩www.dilidm.com][国漫]先婚后 ... 哩嘀哩www.dilidm.com][国漫]先婚后 ... 哩嘀哩www.dilidm.com][国漫]先婚后 ... 哩嘀哩www.dilidm.com][国漫]先婚后 ... 妻 第2季 第6集 蓝光(1080P).qlv ...
创建时间: 2019-12-08 08:45:32 大小:961.96 MB 文件数量:6 热度:10 最近下载:2025-10-14 09:16:02
    ... VA - House Selection by mp3hr.com vol. 6.pdf": 183471, "Calvin Harris ...
创建时间: 2019-12-09 07:20:34 大小:559.85 MB 文件数量:40 热度:3 最近下载:2023-12-28 02:22:02
    {"readme.txt": 245, "license.dat": 278, "crackzsoft.com.url": 181, "DriverEasy_Setup.exe": 4205459, "Download From crackzsoft.com.txt": 1082}
创建时间: 2019-12-09 09:51:28 大小:4.01 MB 文件数量:5 热度:3 最近下载:2023-12-28 02:43:02
    ... 哩嘀哩www.dilidm.com][国漫]隐婚新 ... 哩嘀哩www.dilidm.com][国漫]隐婚新 ... 哩嘀哩www.dilidm.com][国漫]隐婚新 ... 哩嘀哩www.dilidm.com][国漫]隐婚新 ... 哩嘀哩www.dilidm.com][国漫]隐婚新 ... 哩嘀哩www.dilidm.com][国漫]隐婚新 ... 娘 第6集 蓝光(1080P).qlv ...
创建时间: 2019-12-09 16:47:24 大小:918.83 MB 文件数量:6 热度:14 最近下载:2025-10-13 16:17:03
    ... whole_hd1.wmv": 1080239863, "【ses23.com】whole_hd2.wmv": 1083672823, "免 ... 视频.html": 73133, "ses23.com免费在线视 ...
创建时间: 2019-12-10 01:27:52 大小:2.02 GB 文件数量:12 热度:17 最近下载:2025-06-07 14:33:01